Time;durP1;ratioP1;P1;durP2;ratioP2;P2;SDS_P1;SDS_P2;PMS_P1;PMS_P2;Temp;Humidity;BMP_temperature;BMP_pressure;BME280_temperature;BME280_humidity;BME280_pressure;Samples;Min_cycle;Max_cycle;Signal;HPM_P1;HPM_P2
2023/07/01 00:00:08;;;;;;;3.63;1.48;;;;;;;;;;5010292;28;20041;-74
2023/07/01 00:02:36;;;;;;;2.25;1.67;;;;;;;;;;5015226;28;20029;-74
2023/07/01 00:05:03;;;;;;;2.30;1.70;;;;;;;;;;5015649;28;20030;-74
2023/07/01 00:07:29;;;;;;;3.75;1.50;;;;;;;;;;4995484;28;20021;-74
2023/07/01 00:09:54;;;;;;;3.72;1.60;;;;;;;;;;5014145;28;20029;-74
2023/07/01 00:12:20;;;;;;;1.30;1.20;;;;;;;;;;5015111;28;20442;-75
2023/07/01 00:14:45;;;;;;;3.28;1.45;;;;;;;;;;5004544;28;20108;-75
2023/07/01 00:17:12;;;;;;;1.50;1.40;;;;;;;;;;5048636;28;20135;-76
2023/07/01 00:19:38;;;;;;;1.60;1.27;;;;;;;;;;5038627;28;20478;-75
2023/07/01 00:22:04;;;;;;;2.53;1.70;;;;;;;;;;5057314;28;20148;-75
2023/07/01 00:24:29;;;;;;;3.92;1.48;;;;;;;;;;5051283;28;20483;-74
2023/07/01 00:26:54;;;;;;;1.60;1.50;;;;;;;;;;5033665;28;20071;-75
2023/07/01 00:29:20;;;;;;;2.25;1.40;;;;;;;;;;5055737;28;20029;-76
2023/07/01 00:31:46;;;;;;;1.58;1.40;;;;;;;;;;5051280;28;20037;-75
2023/07/01 00:34:12;;;;;;;1.85;1.45;;;;;;;;;;5027847;28;20517;-75
2023/07/01 00:36:37;;;;;;;2.28;1.48;;;;;;;;;;5039561;28;20041;-75
2023/07/01 00:39:03;;;;;;;3.95;1.73;;;;;;;;;;5036011;28;20028;-74
2023/07/01 00:41:29;;;;;;;1.88;1.40;;;;;;;;;;5040000;28;20056;-73
2023/07/01 00:43:54;;;;;;;1.45;1.35;;;;;;;;;;5053688;28;20029;-73
2023/07/01 00:46:21;;;;;;;1.58;1.35;;;;;;;;;;5033059;28;20049;-74
2023/07/01 00:48:47;;;;;;;2.78;1.30;;;;;;;;;;5031842;28;20053;-75
2023/07/01 00:51:13;;;;;;;2.83;1.52;;;;;;;;;;5032037;28;20045;-75
2023/07/01 00:53:39;;;;;;;1.45;1.30;;;;;;;;;;5051180;28;20083;-75
2023/07/01 00:56:06;;;;;;;1.80;1.40;;;;;;;;;;5010172;28;20444;-76
2023/07/01 00:58:32;;;;;;;4.93;1.40;;;;;;;;;;5050960;28;20017;-75
2023/07/01 01:01:02;;;;;;;2.28;1.52;;;;;;;;;;5055315;28;20060;-76
2023/07/01 01:03:45;;;;;;;2.13;1.27;;;;;;;;;;5038534;28;20024;-76
2023/07/01 01:06:43;;;;;;;1.60;1.38;;;;;;;;;;5024040;28;20116;-74
2023/07/01 01:09:22;;;;;;;6.72;1.58;;;;;;;;;;5039314;28;20029;-76
2023/07/01 01:11:49;;;;;;;1.45;1.35;;;;;;;;;;5037198;28;20057;-74
2023/07/01 01:14:16;;;;;;;1.60;1.30;;;;;;;;;;5036268;28;20048;-75
2023/07/01 01:16:43;;;;;;;1.15;1.15;;;;;;;;;;5046828;28;20072;-75
2023/07/01 01:19:32;;;;;;;2.60;1.58;;;;;;;;;;5053252;28;20466;-75
2023/07/01 01:22:05;;;;;;;2.00;1.33;;;;;;;;;;5051689;28;20051;-77
2023/07/01 01:24:33;;;;;;;2.65;1.38;;;;;;;;;;5031897;28;20026;-76
2023/07/01 01:27:00;;;;;;;1.88;1.52;;;;;;;;;;5051991;28;20044;-75
2023/07/01 01:29:26;;;;;;;1.40;1.30;;;;;;;;;;5021015;28;20021;-73
2023/07/01 01:31:51;;;;;;;1.83;1.10;;;;;;;;;;5017886;28;20045;-74
2023/07/01 01:34:16;;;;;;;1.33;1.23;;;;;;;;;;5029755;28;20035;-75
2023/07/01 01:36:53;;;;;;;1.85;1.52;;;;;;;;;;5039218;28;20057;-75
2023/07/01 01:39:24;;;;;;;2.85;1.38;;;;;;;;;;5042034;28;20394;-75
2023/07/01 01:42:06;;;;;;;4.25;1.30;;;;;;;;;;5033059;28;20036;-75
2023/07/01 01:44:46;;;;;;;1.20;1.20;;;;;;;;;;5028920;28;20405;-74
2023/07/01 01:47:17;;;;;;;9.82;1.35;;;;;;;;;;5052320;28;20044;-75
2023/07/01 01:49:45;;;;;;;3.53;1.40;;;;;;;;;;5040169;28;20508;-75
2023/07/01 01:52:16;;;;;;;4.05;1.30;;;;;;;;;;5037422;28;20119;-74
2023/07/01 01:54:44;;;;;;;1.33;1.10;;;;;;;;;;5023434;28;20027;-74
2023/07/01 01:57:10;;;;;;;1.80;1.23;;;;;;;;;;5049547;28;20033;-75
2023/07/01 01:59:36;;;;;;;1.45;1.25;;;;;;;;;;5022497;28;20017;-75
2023/07/01 02:02:02;;;;;;;1.88;1.10;;;;;;;;;;5056983;28;20394;-75
2023/07/01 02:04:27;;;;;;;1.40;1.30;;;;;;;;;;5041709;28;20029;-75
2023/07/01 02:06:52;;;;;;;2.88;1.52;;;;;;;;;;5034075;28;20041;-73
2023/07/01 02:09:18;;;;;;;1.70;1.10;;;;;;;;;;5046956;28;20494;-74
2023/07/01 02:11:44;;;;;;;3.70;1.55;;;;;;;;;;5058168;28;20041;-74
2023/07/01 02:14:09;;;;;;;4.00;1.25;;;;;;;;;;5056219;28;20106;-74
2023/07/01 02:16:36;;;;;;;4.38;1.30;;;;;;;;;;5026227;28;20680;-74
2023/07/01 02:19:04;;;;;;;1.95;1.30;;;;;;;;;;5024381;28;20029;-74
2023/07/01 02:21:30;;;;;;;4.22;1.63;;;;;;;;;;5048408;28;20043;-75
2023/07/01 02:23:57;;;;;;;1.63;1.52;;;;;;;;;;5028823;28;20028;-75
2023/07/01 02:26:22;;;;;;;1.90;1.80;;;;;;;;;;5035042;28;20115;-76
2023/07/01 02:28:48;;;;;;;2.95;1.50;;;;;;;;;;5058185;28;20093;-76
2023/07/01 02:31:17;;;;;;;1.77;1.40;;;;;;;;;;5034962;28;20045;-76
2023/07/01 02:33:43;;;;;;;1.80;1.45;;;;;;;;;;5039738;28;20035;-76
2023/07/01 02:36:08;;;;;;;4.88;2.03;;;;;;;;;;5041411;28;20046;-76
2023/07/01 02:38:34;;;;;;;1.80;1.67;;;;;;;;;;5033302;28;20026;-75
2023/07/01 02:41:00;;;;;;;4.68;1.40;;;;;;;;;;5027436;28;20095;-74
2023/07/01 02:43:25;;;;;;;1.48;1.38;;;;;;;;;;5023963;28;20024;-75
2023/07/01 02:45:51;;;;;;;2.10;1.60;;;;;;;;;;5059521;28;20040;-73
2023/07/01 02:48:16;;;;;;;2.63;1.40;;;;;;;;;;5039794;28;20032;-73
2023/07/01 02:50:42;;;;;;;2.28;1.50;;;;;;;;;;5049799;28;20065;-75
2023/07/01 02:53:07;;;;;;;3.47;1.13;;;;;;;;;;5018538;28;20116;-75
2023/07/01 02:55:34;;;;;;;1.30;1.20;;;;;;;;;;5056314;28;20237;-75
2023/07/01 02:58:00;;;;;;;4.53;1.75;;;;;;;;;;5039366;28;20029;-75
2023/07/01 03:00:25;;;;;;;3.80;1.35;;;;;;;;;;5046274;28;20063;-75
2023/07/01 03:02:51;;;;;;;1.75;1.30;;;;;;;;;;5038124;28;20031;-75
2023/07/01 03:05:19;;;;;;;2.42;1.40;;;;;;;;;;5042758;28;20043;-75
2023/07/01 03:07:44;;;;;;;3.63;1.40;;;;;;;;;;5039108;28;20112;-76
2023/07/01 03:10:10;;;;;;;2.10;1.58;;;;;;;;;;5023483;28;20065;-76
2023/07/01 03:12:35;;;;;;;2.03;1.42;;;;;;;;;;5026665;28;20041;-76
2023/07/01 03:15:01;;;;;;;3.72;1.45;;;;;;;;;;5037878;28;20025;-74
2023/07/01 03:17:26;;;;;;;1.50;1.40;;;;;;;;;;5037649;28;20049;-74
2023/07/01 03:19:51;;;;;;;2.47;1.45;;;;;;;;;;5035801;28;20095;-76
2023/07/01 03:22:17;;;;;;;1.73;1.10;;;;;;;;;;5042825;28;20025;-75
2023/07/01 03:24:42;;;;;;;1.23;1.10;;;;;;;;;;5041744;28;20458;-72
2023/07/01 03:27:08;;;;;;;4.40;1.25;;;;;;;;;;5036877;28;20060;-73
2023/07/01 03:29:33;;;;;;;2.53;1.30;;;;;;;;;;5043795;28;20047;-72
2023/07/01 03:31:59;;;;;;;6.50;1.67;;;;;;;;;;5039666;28;20033;-71
2023/07/01 03:34:25;;;;;;;3.50;1.25;;;;;;;;;;5030337;28;20041;-74
2023/07/01 03:36:51;;;;;;;1.50;1.17;;;;;;;;;;5034351;28;20076;-74
2023/07/01 03:39:17;;;;;;;2.33;1.40;;;;;;;;;;5050272;28;20025;-74
2023/07/01 03:41:42;;;;;;;2.90;1.35;;;;;;;;;;5051033;28;20034;-73
2023/07/01 03:44:08;;;;;;;3.33;1.60;;;;;;;;;;5041359;28;20033;-72
2023/07/01 03:46:33;;;;;;;6.07;1.40;;;;;;;;;;5038133;28;20064;-73
2023/07/01 03:48:59;;;;;;;3.58;1.52;;;;;;;;;;5037581;28;20642;-74
2023/07/01 03:51:24;;;;;;;2.83;1.20;;;;;;;;;;5024693;28;20033;-73
2023/07/01 03:53:51;;;;;;;1.50;1.40;;;;;;;;;;5039088;28;20021;-73
2023/07/01 03:56:16;;;;;;;5.25;1.48;;;;;;;;;;5041234;28;20037;-75
2023/07/01 03:58:42;;;;;;;3.22;1.38;;;;;;;;;;5031574;28;20089;-75
2023/07/01 04:01:07;;;;;;;1.98;1.33;;;;;;;;;;5034412;28;20063;-75
2023/07/01 04:03:34;;;;;;;2.17;1.27;;;;;;;;;;5042870;28;20058;-75
2023/07/01 04:05:59;;;;;;;3.00;1.50;;;;;;;;;;5044280;28;20037;-74
2023/07/01 04:08:25;;;;;;;2.65;1.40;;;;;;;;;;5043720;28;20091;-74
2023/07/01 04:10:50;;;;;;;4.82;1.55;;;;;;;;;;5045627;28;20033;-75
2023/07/01 04:13:16;;;;;;;3.05;1.50;;;;;;;;;;5035165;28;20438;-75
2023/07/01 04:15:41;;;;;;;2.65;1.40;;;;;;;;;;5028364;28;20072;-75
2023/07/01 04:18:07;;;;;;;2.55;1.48;;;;;;;;;;5035245;28;20075;-75
2023/07/01 04:20:32;;;;;;;1.73;1.50;;;;;;;;;;5033776;28;20041;-75
2023/07/01 04:22:58;;;;;;;1.67;1.30;;;;;;;;;;5050998;28;20463;-73
2023/07/01 04:25:23;;;;;;;2.47;1.45;;;;;;;;;;5010070;28;20059;-75
2023/07/01 04:27:49;;;;;;;4.50;1.15;;;;;;;;;;5041270;28;20510;-74
2023/07/01 04:30:14;;;;;;;2.25;1.40;;;;;;;;;;5029719;28;20049;-74
2023/07/01 04:32:40;;;;;;;1.92;1.48;;;;;;;;;;5030700;28;20036;-74
2023/07/01 04:35:06;;;;;;;2.88;1.60;;;;;;;;;;5019949;28;20040;-75
2023/07/01 04:37:32;;;;;;;2.60;1.48;;;;;;;;;;5048674;28;20055;-74
2023/07/01 04:39:57;;;;;;;4.53;1.67;;;;;;;;;;5048983;28;20083;-74
2023/07/01 04:42:23;;;;;;;2.05;1.23;;;;;;;;;;5035534;28;20030;-74
2023/07/01 04:44:53;;;;;;;2.45;1.52;;;;;;;;;;5022294;28;20087;-74
2023/07/01 04:47:21;;;;;;;4.32;1.70;;;;;;;;;;5050495;28;20071;-73
2023/07/01 04:49:47;;;;;;;2.40;1.50;;;;;;;;;;5056020;28;20119;-74
2023/07/01 04:52:14;;;;;;;1.50;1.40;;;;;;;;;;5053838;28;20060;-75
2023/07/01 04:54:40;;;;;;;3.38;2.00;;;;;;;;;;5036739;28;20466;-74
2023/07/01 04:57:05;;;;;;;3.05;1.40;;;;;;;;;;5063506;28;20314;-74
2023/07/01 04:59:30;;;;;;;5.20;1.65;;;;;;;;;;5040687;28;20021;-74
2023/07/01 05:01:56;;;;;;;4.88;1.85;;;;;;;;;;5026457;28;20398;-74
2023/07/01 05:04:21;;;;;;;2.78;1.73;;;;;;;;;;5053123;28;20475;-73
2023/07/01 05:06:47;;;;;;;4.95;1.80;;;;;;;;;;5049617;28;20508;-75
2023/07/01 05:09:12;;;;;;;9.68;1.80;;;;;;;;;;5035934;28;20063;-75
2023/07/01 05:11:38;;;;;;;2.70;1.23;;;;;;;;;;5052398;28;20041;-75
2023/07/01 05:14:04;;;;;;;3.28;1.65;;;;;;;;;;5035296;28;20032;-75
2023/07/01 05:16:31;;;;;;;2.10;1.42;;;;;;;;;;5036805;28;20045;-73
2023/07/01 05:18:58;;;;;;;4.00;1.48;;;;;;;;;;5035085;28;20025;-75
2023/07/01 05:21:24;;;;;;;5.40;1.52;;;;;;;;;;5035309;28;20032;-74
2023/07/01 05:23:49;;;;;;;4.28;1.80;;;;;;;;;;5036818;28;20037;-75
2023/07/01 05:26:15;;;;;;;1.63;1.40;;;;;;;;;;5051074;28;20116;-75
2023/07/01 05:28:40;;;;;;;3.92;1.60;;;;;;;;;;5028239;28;20036;-76
2023/07/01 05:31:06;;;;;;;3.95;1.77;;;;;;;;;;5032557;28;20045;-75
2023/07/01 05:33:31;;;;;;;2.30;1.60;;;;;;;;;;5054494;28;20063;-76
2023/07/01 05:35:56;;;;;;;3.40;1.40;;;;;;;;;;5050654;28;20045;-74
2023/07/01 05:38:22;;;;;;;4.10;1.63;;;;;;;;;;5023193;28;20017;-76
2023/07/01 05:40:47;;;;;;;3.38;1.83;;;;;;;;;;5038185;28;20034;-74
2023/07/01 05:43:13;;;;;;;2.33;1.80;;;;;;;;;;5026201;28;20036;-75
2023/07/01 05:45:38;;;;;;;2.25;1.50;;;;;;;;;;5054483;28;20029;-75
2023/07/01 05:48:04;;;;;;;4.25;1.42;;;;;;;;;;5054213;28;20037;-75
2023/07/01 05:50:29;;;;;;;3.63;1.67;;;;;;;;;;5057261;28;20122;-76
2023/07/01 05:52:55;;;;;;;3.08;1.40;;;;;;;;;;5056690;28;20032;-75
2023/07/01 05:55:20;;;;;;;3.47;2.30;;;;;;;;;;5052526;28;20045;-75
2023/07/01 05:57:46;;;;;;;1.77;1.50;;;;;;;;;;5042631;28;20025;-74
2023/07/01 06:00:13;;;;;;;1.52;1.42;;;;;;;;;;5058176;28;20067;-75
2023/07/01 06:02:40;;;;;;;7.32;1.70;;;;;;;;;;5023714;28;20025;-75
2023/07/01 06:05:06;;;;;;;1.55;1.42;;;;;;;;;;5030345;28;20025;-75
2023/07/01 06:07:32;;;;;;;4.50;1.55;;;;;;;;;;5023734;28;20528;-74
2023/07/01 06:09:57;;;;;;;4.68;2.03;;;;;;;;;;5057530;28;20424;-75
2023/07/01 06:12:23;;;;;;;2.22;1.48;;;;;;;;;;5039115;28;20055;-75
2023/07/01 06:14:48;;;;;;;1.80;1.52;;;;;;;;;;5056721;28;20531;-75
2023/07/01 06:17:14;;;;;;;1.75;1.65;;;;;;;;;;5036322;28;20129;-74
2023/07/01 06:19:39;;;;;;;3.78;1.65;;;;;;;;;;5056024;28;20036;-74
2023/07/01 06:22:04;;;;;;;3.05;1.33;;;;;;;;;;5048918;28;20041;-74
2023/07/01 06:24:30;;;;;;;5.43;1.83;;;;;;;;;;5042050;28;20383;-74
2023/07/01 06:26:55;;;;;;;5.38;1.80;;;;;;;;;;5059677;28;20056;-73
2023/07/01 06:29:21;;;;;;;3.65;1.58;;;;;;;;;;5041921;28;20078;-72
2023/07/01 06:31:46;;;;;;;2.58;1.38;;;;;;;;;;5065843;28;20513;-74
2023/07/01 06:34:13;;;;;;;2.17;1.40;;;;;;;;;;5036440;28;20043;-75
2023/07/01 06:36:39;;;;;;;4.65;1.75;;;;;;;;;;5045703;28;20038;-75
2023/07/01 06:39:04;;;;;;;4.65;1.55;;;;;;;;;;5019208;28;20025;-75
2023/07/01 06:41:30;;;;;;;1.83;1.73;;;;;;;;;;5039519;28;20029;-75
2023/07/01 06:43:55;;;;;;;5.60;2.15;;;;;;;;;;5057564;28;20502;-74
2023/07/01 06:46:21;;;;;;;6.22;1.70;;;;;;;;;;5040937;28;20467;-75
2023/07/01 06:48:46;;;;;;;2.42;1.80;;;;;;;;;;5035051;28;20159;-74
2023/07/01 06:51:13;;;;;;;8.65;1.60;;;;;;;;;;5047610;28;20052;-73
2023/07/01 06:53:39;;;;;;;5.88;1.70;;;;;;;;;;5022202;28;20029;-74
2023/07/01 06:56:05;;;;;;;3.45;1.83;;;;;;;;;;5055634;28;20041;-75
2023/07/01 06:58:30;;;;;;;2.03;1.30;;;;;;;;;;5042153;28;20017;-76
2023/07/01 07:00:56;;;;;;;3.83;1.52;;;;;;;;;;5039577;28;20046;-74
2023/07/01 07:03:21;;;;;;;6.35;1.70;;;;;;;;;;5052699;28;20037;-74
2023/07/01 07:05:47;;;;;;;2.78;1.63;;;;;;;;;;5039862;28;20528;-73
2023/07/01 07:08:12;;;;;;;2.17;1.45;;;;;;;;;;5037096;28;20045;-74
2023/07/01 07:10:37;;;;;;;1.90;1.40;;;;;;;;;;5015453;28;20419;-74
2023/07/01 07:13:03;;;;;;;6.70;1.77;;;;;;;;;;5046941;28;20036;-74
2023/07/01 07:15:29;;;;;;;4.78;1.85;;;;;;;;;;5038091;28;20072;-75
2023/07/01 07:17:54;;;;;;;4.90;1.52;;;;;;;;;;5053877;28;20458;-75
2023/07/01 07:20:21;;;;;;;3.33;1.40;;;;;;;;;;5034590;28;20395;-75
2023/07/01 07:22:46;;;;;;;4.18;1.45;;;;;;;;;;5052347;28;20029;-74
2023/07/01 07:25:18;;;;;;;2.67;1.50;;;;;;;;;;5051663;28;20037;-74
2023/07/01 07:27:44;;;;;;;2.22;1.70;;;;;;;;;;5037668;28;20419;-75
2023/07/01 07:30:14;;;;;;;1.55;1.38;;;;;;;;;;5056509;28;20029;-74
2023/07/01 07:32:39;;;;;;;9.82;1.40;;;;;;;;;;5024590;28;20568;-75
2023/07/01 07:35:05;;;;;;;2.67;1.38;;;;;;;;;;5053449;28;20030;-73
2023/07/01 07:37:31;;;;;;;6.60;1.20;;;;;;;;;;5041631;28;20043;-73
2023/07/01 07:39:59;;;;;;;3.70;1.50;;;;;;;;;;5038215;28;20492;-76
2023/07/01 07:42:25;;;;;;;2.92;1.50;;;;;;;;;;5038040;28;20040;-72
2023/07/01 07:44:50;;;;;;;2.08;1.33;;;;;;;;;;5050407;28;20024;-64
2023/07/01 07:47:16;;;;;;;1.58;1.35;;;;;;;;;;5009571;28;20031;-75
2023/07/01 07:49:41;;;;;;;3.67;1.23;;;;;;;;;;5014194;28;20036;-73
2023/07/01 07:52:07;;;;;;;5.85;1.65;;;;;;;;;;5053103;28;20041;-74
2023/07/01 07:54:32;;;;;;;3.63;1.55;;;;;;;;;;5018723;28;20025;-74
2023/07/01 07:56:59;;;;;;;1.88;1.35;;;;;;;;;;5015720;28;20040;-77
2023/07/01 07:59:28;;;;;;;4.80;2.20;;;;;;;;;;5044879;28;20060;-76
2023/07/01 08:01:57;;;;;;;2.35;2.00;;;;;;;;;;5052129;28;20025;-73
2023/07/01 08:04:23;;;;;;;2.80;1.55;;;;;;;;;;5049469;28;20067;-76
2023/07/01 08:06:48;;;;;;;4.60;1.40;;;;;;;;;;5019468;28;20037;-73
2023/07/01 08:09:14;;;;;;;1.88;1.30;;;;;;;;;;5034474;28;20097;-72
2023/07/01 08:11:39;;;;;;;2.25;1.30;;;;;;;;;;5033937;28;20068;-75
2023/07/01 08:14:05;;;;;;;3.30;1.52;;;;;;;;;;5051165;28;20044;-76
2023/07/01 08:16:32;;;;;;;1.50;1.40;;;;;;;;;;5038912;28;20056;-75
2023/07/01 08:18:57;;;;;;;4.00;1.60;;;;;;;;;;5049119;28;20101;-75
2023/07/01 08:21:23;;;;;;;5.40;1.80;;;;;;;;;;5044877;28;20592;-75
2023/07/01 08:23:48;;;;;;;2.85;1.65;;;;;;;;;;5033633;28;20801;-76
2023/07/01 08:26:14;;;;;;;3.22;1.60;;;;;;;;;;5032008;28;20053;-76
2023/07/01 08:28:39;;;;;;;8.73;1.50;;;;;;;;;;5048536;28;20025;-76
2023/07/01 08:31:04;;;;;;;1.98;1.42;;;;;;;;;;5015107;28;20044;-74
2023/07/01 08:33:30;;;;;;;4.47;1.88;;;;;;;;;;5035002;28;20031;-77
2023/07/01 08:35:58;;;;;;;3.13;1.60;;;;;;;;;;5035707;28;20040;-77
2023/07/01 08:38:25;;;;;;;4.68;1.48;;;;;;;;;;5054761;28;20025;-77
2023/07/01 08:40:53;;;;;;;2.17;1.95;;;;;;;;;;5050850;28;20538;-74
2023/07/01 08:43:22;;;;;;;2.85;1.58;;;;;;;;;;5019034;28;20028;-77
2023/07/01 08:45:50;;;;;;;4.18;1.55;;;;;;;;;;5039439;28;20139;-77
2023/07/01 08:48:20;;;;;;;3.15;1.52;;;;;;;;;;5027536;28;20020;-77
2023/07/01 08:50:55;;;;;;;1.70;1.60;;;;;;;;;;5013203;28;20045;-75
2023/07/01 08:53:21;;;;;;;6.72;2.15;;;;;;;;;;5051478;28;20446;-77
2023/07/01 08:55:47;;;;;;;1.80;1.70;;;;;;;;;;5035159;28;20033;-76
2023/07/01 08:58:13;;;;;;;2.70;1.63;;;;;;;;;;5047084;28;20256;-77
2023/07/01 09:00:40;;;;;;;7.15;3.22;;;;;;;;;;5053791;28;20108;-77
2023/07/01 09:03:06;;;;;;;1.73;1.63;;;;;;;;;;5033580;28;20044;-78
2023/07/01 09:05:32;;;;;;;4.35;1.60;;;;;;;;;;5039330;28;20656;-75
2023/07/01 09:07:57;;;;;;;3.20;1.77;;;;;;;;;;5029859;28;20494;-76
2023/07/01 09:10:23;;;;;;;1.80;1.50;;;;;;;;;;5050956;28;20064;-78
2023/07/01 09:12:48;;;;;;;1.60;1.50;;;;;;;;;;5011166;28;20041;-75
2023/07/01 09:15:13;;;;;;;3.78;1.55;;;;;;;;;;5036372;28;20518;-77
2023/07/01 09:17:40;;;;;;;2.28;1.60;;;;;;;;;;5035341;28;20052;-77
2023/07/01 09:20:11;;;;;;;2.63;1.80;;;;;;;;;;5048306;28;20026;-77
2023/07/01 09:22:39;;;;;;;2.47;2.28;;;;;;;;;;5055113;28;20029;-71
2023/07/01 09:25:07;;;;;;;4.93;1.88;;;;;;;;;;5048541;28;20060;-75
2023/07/01 09:27:46;;;;;;;2.47;2.28;;;;;;;;;;5051400;28;20043;-76
2023/07/01 09:30:21;;;;;;;3.85;1.80;;;;;;;;;;5031951;28;20074;-77
2023/07/01 09:32:47;;;;;;;6.95;1.60;;;;;;;;;;5027799;28;20117;-77
2023/07/01 09:35:13;;;;;;;2.05;1.27;;;;;;;;;;5012215;28;20522;-76
2023/07/01 09:37:38;;;;;;;2.65;1.50;;;;;;;;;;5052583;28;20021;-77
2023/07/01 09:40:21;;;;;;;4.03;1.55;;;;;;;;;;5030909;28;20043;-75
2023/07/01 09:42:50;;;;;;;5.13;1.63;;;;;;;;;;5043871;28;20029;-74
2023/07/01 09:45:16;;;;;;;1.98;1.45;;;;;;;;;;5020865;28;20033;-74
2023/07/01 09:47:41;;;;;;;2.63;1.30;;;;;;;;;;5023882;28;20025;-75
2023/07/01 09:50:07;;;;;;;1.50;1.20;;;;;;;;;;5035588;28;20025;-75
2023/07/01 09:52:34;;;;;;;3.10;1.40;;;;;;;;;;5053318;28;20037;-73
2023/07/01 09:55:02;;;;;;;3.00;2.00;;;;;;;;;;5037281;28;20028;-76
2023/07/01 09:57:28;;;;;;;2.97;1.60;;;;;;;;;;5055322;28;20025;-74
2023/07/01 09:59:54;;;;;;;7.07;1.40;;;;;;;;;;5052200;28;20032;-75
2023/07/01 10:02:20;;;;;;;2.08;1.40;;;;;;;;;;5030304;28;20039;-74
2023/07/01 10:04:46;;;;;;;2.42;2.22;;;;;;;;;;5037222;28;20048;-77
2023/07/01 10:07:11;;;;;;;3.60;3.10;;;;;;;;;;5039366;28;20045;-74
2023/07/01 10:09:43;;;;;;;1.42;1.30;;;;;;;;;;5032172;28;20449;-74
2023/07/01 10:12:10;;;;;;;1.70;1.35;;;;;;;;;;5036363;28;20471;-72
2023/07/01 10:14:35;;;;;;;4.57;2.17;;;;;;;;;;5033587;28;20162;-75
2023/07/01 10:17:01;;;;;;;1.80;1.70;;;;;;;;;;5051977;28;20132;-74
2023/07/01 10:19:28;;;;;;;2.88;1.80;;;;;;;;;;5042095;28;20029;-75
2023/07/01 10:22:13;;;;;;;4.28;2.10;;;;;;;;;;5053369;28;20036;-74
2023/07/01 10:24:39;;;;;;;2.67;1.48;;;;;;;;;;5044695;28;20121;-73
2023/07/01 10:27:05;;;;;;;3.03;1.50;;;;;;;;;;5042116;28;20037;-73
2023/07/01 10:29:31;;;;;;;1.48;1.20;;;;;;;;;;5047106;28;20028;-73
2023/07/01 10:32:25;;;;;;;2.60;1.65;;;;;;;;;;5056660;28;20548;-73
2023/07/01 10:34:54;;;;;;;3.80;2.88;;;;;;;;;;5046496;28;20043;-70
2023/07/01 10:37:27;;;;;;;1.40;1.20;;;;;;;;;;5052371;28;20041;-72
2023/07/01 10:39:54;;;;;;;2.30;1.60;;;;;;;;;;5044010;28;20501;-74
2023/07/01 10:42:33;;;;;;;2.42;1.10;;;;;;;;;;5060195;28;20032;-74
2023/07/01 10:45:10;;;;;;;1.65;1.20;;;;;;;;;;5039387;28;20108;-74
2023/07/01 10:47:37;;;;;;;1.77;1.33;;;;;;;;;;5052073;28;20061;-74
2023/07/01 10:50:04;;;;;;;4.40;1.55;;;;;;;;;;5048508;28;20025;-75
2023/07/01 10:52:31;;;;;;;2.63;1.40;;;;;;;;;;5042791;28;20052;-72
2023/07/01 10:54:59;;;;;;;1.52;1.20;;;;;;;;;;5049419;28;20029;-74
2023/07/01 10:57:24;;;;;;;3.97;1.20;;;;;;;;;;5058491;28;20028;-74
2023/07/01 10:59:50;;;;;;;1.30;1.20;;;;;;;;;;5041847;28;20021;-51
2023/07/01 11:02:38;;;;;;;1.55;1.30;;;;;;;;;;5050204;28;20056;-74
2023/07/01 11:05:05;;;;;;;3.45;1.67;;;;;;;;;;5043188;28;20024;-72
2023/07/01 11:07:31;;;;;;;1.63;1.02;;;;;;;;;;5053864;28;20694;-71
2023/07/01 11:09:58;;;;;;;1.25;1.10;;;;;;;;;;5039198;28;20028;-73
2023/07/01 11:12:24;;;;;;;1.13;1.00;;;;;;;;;;5070583;28;20389;-70
2023/07/01 11:14:52;;;;;;;4.70;1.40;;;;;;;;;;5057061;28;20401;-72
2023/07/01 11:17:19;;;;;;;3.75;1.30;;;;;;;;;;5051493;28;20094;-71
2023/07/01 11:19:45;;;;;;;1.05;0.65;;;;;;;;;;5044659;28;20032;-73
2023/07/01 11:22:14;;;;;;;0.90;0.90;;;;;;;;;;5059545;28;20033;-72
2023/07/01 11:24:40;;;;;;;0.80;0.80;;;;;;;;;;5045898;28;20557;-72
2023/07/01 11:27:09;;;;;;;2.00;1.00;;;;;;;;;;5055068;28;20131;-70
2023/07/01 11:29:35;;;;;;;2.15;1.00;;;;;;;;;;5036750;28;20032;-72
2023/07/01 11:32:03;;;;;;;0.82;0.82;;;;;;;;;;5053469;28;20525;-72
2023/07/01 11:34:29;;;;;;;1.20;0.73;;;;;;;;;;5047941;28;20541;-73
2023/07/01 11:36:55;;;;;;;1.15;0.90;;;;;;;;;;5049320;28;20049;-71
2023/07/01 11:39:21;;;;;;;0.55;0.55;;;;;;;;;;5054520;28;20024;-72
2023/07/01 11:41:53;;;;;;;1.40;1.30;;;;;;;;;;5046396;28;20034;-71
2023/07/01 11:44:22;;;;;;;;;;;;;;;;;;5046800;28;20170;-74
2023/07/01 11:46:48;;;;;;;1.23;1.00;;;;;;;;;;5039470;28;19917;-71
2023/07/01 11:49:24;;;;;;;4.40;2.42;;;;;;;;;;5050990;28;20039;-70
2023/07/01 11:51:55;;;;;;;2.10;2.00;;;;;;;;;;5036260;28;20041;-71
2023/07/01 11:54:22;;;;;;;7.32;2.00;;;;;;;;;;5055319;28;20033;-71
2023/07/01 11:56:51;;;;;;;3.13;1.58;;;;;;;;;;5055420;28;20063;-71
2023/07/01 11:59:31;;;;;;;3.65;1.20;;;;;;;;;;5056165;28;20029;-70
2023/07/01 12:01:58;;;;;;;1.98;0.98;;;;;;;;;;5049787;28;20490;-71
2023/07/01 12:04:23;;;;;;;0.95;0.95;;;;;;;;;;5020418;28;20029;-70
2023/07/01 12:06:49;;;;;;;1.60;1.05;;;;;;;;;;5052531;28;20048;-70
2023/07/01 12:09:30;;;;;;;1.27;0.82;;;;;;;;;;5053518;28;20033;-71
2023/07/01 12:11:56;;;;;;;0.93;0.90;;;;;;;;;;5045067;28;20403;-71
2023/07/01 12:14:22;;;;;;;2.53;0.90;;;;;;;;;;5051948;28;20078;-71
2023/07/01 12:16:49;;;;;;;2.15;0.93;;;;;;;;;;5053138;28;20414;-72
2023/07/01 12:19:22;;;;;;;1.48;1.00;;;;;;;;;;5038464;28;20466;-71
2023/07/01 12:21:50;;;;;;;0.85;0.85;;;;;;;;;;5032671;28;20036;-71
2023/07/01 12:24:17;;;;;;;5.07;1.00;;;;;;;;;;5038351;28;20173;-71
2023/07/01 12:26:42;;;;;;;1.63;1.27;;;;;;;;;;5036390;28;20186;-71
2023/07/01 12:29:08;;;;;;;0.85;0.85;;;;;;;;;;5037038;28;20057;-71
2023/07/01 12:31:33;;;;;;;0.75;0.75;;;;;;;;;;5030611;28;20036;-71
2023/07/01 12:33:59;;;;;;;1.05;0.95;;;;;;;;;;5046161;28;20486;-69
2023/07/01 12:36:25;;;;;;;0.93;0.93;;;;;;;;;;5013831;28;20534;-70
2023/07/01 12:38:51;;;;;;;1.30;1.20;;;;;;;;;;5030049;28;20033;-70
2023/07/01 12:41:16;;;;;;;0.90;0.73;;;;;;;;;;5038230;28;20094;-70
2023/07/01 12:43:42;;;;;;;0.80;0.80;;;;;;;;;;5028810;28;20083;-71
2023/07/01 12:46:08;;;;;;;0.77;0.75;;;;;;;;;;5032355;28;20122;-70
2023/07/01 12:48:33;;;;;;;1.02;1.02;;;;;;;;;;5020241;28;20028;-70
2023/07/01 12:50:59;;;;;;;1.75;0.70;;;;;;;;;;5038977;28;20047;-70
2023/07/01 12:53:26;;;;;;;0.70;0.70;;;;;;;;;;5036464;28;20596;-70
2023/07/01 12:55:51;;;;;;;0.95;0.70;;;;;;;;;;5045784;28;20121;-69
2023/07/01 12:58:18;;;;;;;1.75;1.65;;;;;;;;;;5038925;28;20053;-70
2023/07/01 13:00:45;;;;;;;0.90;0.85;;;;;;;;;;5004399;28;20048;-69
2023/07/01 13:03:12;;;;;;;0.80;0.80;;;;;;;;;;5034234;28;20058;-69
2023/07/01 13:05:37;;;;;;;0.75;0.75;;;;;;;;;;5050759;28;20036;-69
2023/07/01 13:08:04;;;;;;;0.60;0.60;;;;;;;;;;5025800;28;20062;-70
2023/07/01 13:10:30;;;;;;;0.60;0.60;;;;;;;;;;5047033;28;20060;-69
2023/07/01 13:12:57;;;;;;;1.23;0.90;;;;;;;;;;5034017;28;20466;-70
2023/07/01 13:15:30;;;;;;;0.60;0.60;;;;;;;;;;5061376;28;20372;-72
2023/07/01 13:17:56;;;;;;;1.98;0.85;;;;;;;;;;5054902;28;20108;-70
2023/07/01 13:20:23;;;;;;;2.85;0.57;;;;;;;;;;5056036;28;20064;-71
2023/07/01 13:22:54;;;;;;;0.40;0.40;;;;;;;;;;5057516;28;20021;-70
2023/07/01 13:25:20;;;;;;;0.70;0.70;;;;;;;;;;5048867;28;20120;-70
2023/07/01 13:27:45;;;;;;;0.57;0.57;;;;;;;;;;5030436;28;20052;-70
2023/07/01 13:30:34;;;;;;;0.70;0.70;;;;;;;;;;5052266;28;20032;-69
2023/07/01 13:33:02;;;;;;;0.50;0.50;;;;;;;;;;5037292;28;20059;-69
2023/07/01 13:35:28;;;;;;;0.80;0.80;;;;;;;;;;5035242;28;20047;-69
2023/07/01 13:38:01;;;;;;;0.50;0.50;;;;;;;;;;5044027;28;20153;-67
2023/07/01 13:40:27;;;;;;;1.52;0.70;;;;;;;;;;5053209;28;20037;-69
2023/07/01 13:42:52;;;;;;;1.25;0.80;;;;;;;;;;5041198;28;20483;-71
2023/07/01 13:45:27;;;;;;;0.43;0.43;;;;;;;;;;5052322;28;20037;-70
2023/07/01 13:47:52;;;;;;;0.60;0.60;;;;;;;;;;5048341;28;20032;-69
2023/07/01 13:50:26;;;;;;;2.50;1.60;;;;;;;;;;5044504;28;20112;-71
2023/07/01 13:52:58;;;;;;;1.45;1.35;;;;;;;;;;5032128;28;20025;-69
2023/07/01 13:55:23;;;;;;;1.52;1.40;;;;;;;;;;5052801;28;20570;-69
2023/07/01 13:57:51;;;;;;;0.50;0.50;;;;;;;;;;5056338;28;20057;-69
2023/07/01 14:00:38;;;;;;;0.75;0.70;;;;;;;;;;5047843;28;20037;-71
2023/07/01 14:03:07;;;;;;;2.50;0.80;;;;;;;;;;5035652;28;20082;-69
2023/07/01 14:05:36;;;;;;;0.77;0.77;;;;;;;;;;5047059;28;20065;-69
2023/07/01 14:08:01;;;;;;;1.27;0.60;;;;;;;;;;5058918;28;20033;-69
2023/07/01 14:10:29;;;;;;;1.48;0.70;;;;;;;;;;5042152;28;20093;-70
2023/07/01 14:12:59;;;;;;;1.60;0.70;;;;;;;;;;5040117;28;20028;-69
2023/07/01 14:15:38;;;;;;;0.77;0.75;;;;;;;;;;5044951;28;20037;-70
2023/07/01 14:18:12;;;;;;;1.88;1.52;;;;;;;;;;5038348;28;20033;-69
2023/07/01 14:20:43;;;;;;;0.70;0.70;;;;;;;;;;5036846;28;20040;-68
2023/07/01 14:23:14;;;;;;;3.30;0.80;;;;;;;;;;5056359;28;20036;-67
2023/07/01 14:25:44;;;;;;;1.08;0.80;;;;;;;;;;5036550;28;20037;-69
2023/07/01 14:28:11;;;;;;;1.25;0.60;;;;;;;;;;5053331;28;20550;-69
2023/07/01 14:31:07;;;;;;;0.73;0.73;;;;;;;;;;5052928;28;20045;-69
2023/07/01 14:33:54;;;;;;;0.63;0.60;;;;;;;;;;5040613;28;20083;-71
2023/07/01 14:36:36;;;;;;;1.98;0.50;;;;;;;;;;5049335;28;20053;-72
2023/07/01 14:39:03;;;;;;;0.60;0.60;;;;;;;;;;5049308;28;20112;-72
2023/07/01 14:41:31;;;;;;;1.00;0.60;;;;;;;;;;5050524;28;20037;-73
2023/07/01 14:44:02;;;;;;;0.50;0.50;;;;;;;;;;5020635;28;20461;-70